Hovedside
METAR-TAF:

METAR-TAF

Lufthavner :

Punta del Este internasjonale lufthavn

Punta del Este, Uruguay

breddegrad: 34-52S, lengdegrad: 055-06W, høyde over havet: 30 m

Gjeldene værobservasjon

Denne rapporten ble laget for 52 minutter siden, klokken 17:00 UTC
Vind 2 kt fra Øst-nordøst
Temperatur 14°C
Luftfuktighet 51%
Trykk 1032 hPa
Sikt 10 km eller mer
ingen skyer under 1500 m og ingen bygeskyer

METAR: SULS 151700Z 06002KT CAVOK 14/04 Q1032

Tid: 14:52 (17:52 UTC)

Varsel

Denne rapporten ble laget for 22 minutter siden, klokken 17:30 UTC
Varsel gyldig fra 15. klokken 18 UTC til 16. klokken 18 UTC
Vind 5 kt fra Nordøst
Sikt 10 km eller mer
ingen skyer under 1500 m og ingen bygeskyer
Midlertidig
fra 16. klokken 02 UTC til 16. klokken 11 UTC
Sikt: 2000 m
Brutte skyer i en høyde av 500 ft
dis,

TAF: SULS 151730Z 1518/1618 05005KT CAVOK TX15/1618Z TN05/1611Z TEMPO 1602/1611 2000 BR BKN005

Værobservasjoner og værvarsel for over 4000 flyplasser (METAR- og TAF-rapporter).

Tilgjengelige stasjoner er representert av de røde og gule prikkene på kartet.

Hold musepekeren over prikken for å se navnet på stasjonen.

Klikk så for å se værobservasjoner og -varsler.

For å forandre kartet kan du klikke på den grønne knappen med svart kryss for å zoome inn, på den grønne knappen med strek for å zoome ut, eller på de grønne pilene for å se tilstøtende kart.


METAR-TAF: